createdAt,value
2016-05-13T00:00:17.995Z,0
2016-05-13T00:01:17.998Z,0
2016-05-13T00:02:17.829Z,0
2016-05-13T00:03:17.847Z,0
2016-05-13T00:04:18.006Z,0
2016-05-13T00:05:18.275Z,0
2016-05-13T00:06:18.183Z,0
2016-05-13T00:07:18.030Z,0
2016-05-13T00:08:18.299Z,0
2016-05-13T00:09:17.957Z,0
2016-05-13T00:10:17.866Z,0
2016-05-13T00:11:17.869Z,0
2016-05-13T00:12:17.872Z,0
2016-05-13T00:13:18.015Z,0
2016-05-13T00:14:17.893Z,0
2016-05-13T00:15:17.864Z,0
2016-05-13T00:16:18.054Z,0
2016-05-13T00:17:18.025Z,0
2016-05-13T00:18:18.059Z,0
2016-05-13T00:19:18.032Z,0
2016-05-13T00:20:18.034Z,0
2016-05-13T00:21:18.021Z,0
2016-05-13T00:22:18.054Z,0
2016-05-13T00:23:17.964Z,0
2016-05-13T00:24:17.748Z,0
2016-05-13T00:25:17.937Z,0
2016-05-13T00:26:18.050Z,0
2016-05-13T00:27:18.037Z,0
2016-05-13T00:28:18.039Z,0
2016-05-13T00:29:17.902Z,0
2016-05-13T00:30:18.061Z,0
2016-05-13T00:31:18.110Z,0
2016-05-13T00:32:17.879Z,0
2016-05-13T00:33:17.881Z,0
2016-05-13T00:34:18.041Z,0
2016-05-13T00:35:18.043Z,0
2016-05-13T00:36:18.092Z,0
2016-05-13T00:37:18.079Z,0
2016-05-13T00:38:17.926Z,0
2016-05-13T00:39:17.882Z,0
2016-05-13T00:40:18.057Z,0
2016-05-13T00:41:18.091Z,0
2016-05-13T00:42:18.108Z,0
2016-05-13T00:43:18.096Z,0
2016-05-13T00:44:18.098Z,0
2016-05-13T00:45:18.085Z,0
2016-05-13T00:46:18.088Z,0
2016-05-13T00:47:17.951Z,0
2016-05-13T00:48:18.093Z,0
2016-05-13T00:49:17.940Z,0
2016-05-13T00:50:18.083Z,0
2016-05-13T00:51:18.101Z,0
2016-05-13T00:52:18.089Z,0
2016-05-13T00:53:18.091Z,0
2016-05-13T00:54:18.110Z,0
2016-05-13T00:55:17.800Z,0
2016-05-13T00:56:17.771Z,0
2016-05-13T00:57:17.931Z,0
2016-05-13T00:58:18.089Z,0
2016-05-13T00:59:18.139Z,0
2016-05-13T01:00:18.094Z,0
2016-05-13T01:01:18.108Z,0
2016-05-13T01:02:18.029Z,0
2016-05-13T01:03:18.076Z,0
2016-05-13T01:04:18.105Z,0
2016-05-13T01:05:18.168Z,0
2016-05-13T01:06:18.175Z,0
2016-05-13T01:07:18.366Z,0
2016-05-13T01:08:18.385Z,0
2016-05-13T01:09:18.418Z,0
2016-05-13T01:10:18.405Z,0
2016-05-13T01:11:18.280Z,0
2016-05-13T01:12:18.413Z,0
2016-05-13T01:13:18.421Z,0
2016-05-13T01:14:18.430Z,0
2016-05-13T01:15:18.438Z,0
2016-05-13T01:16:18.477Z,0
2016-05-13T01:17:18.465Z,0
2016-05-13T01:18:18.470Z,0
2016-05-13T01:19:18.333Z,0
2016-05-13T01:20:18.463Z,0
2016-05-13T01:21:18.467Z,0
2016-05-13T01:22:18.471Z,0
2016-05-13T01:23:18.474Z,0
2016-05-13T01:24:22.041Z,0
2016-05-13T01:25:18.342Z,0
2016-05-13T01:26:18.172Z,0
2016-05-13T01:27:18.488Z,0
2016-05-13T01:28:18.476Z,0
2016-05-13T01:29:18.478Z,0
2016-05-13T01:30:18.513Z,0
2016-05-13T01:31:18.344Z,0
2016-05-13T01:32:18.674Z,0
2016-05-13T01:33:18.380Z,0
2016-05-13T01:34:18.507Z,0
2016-05-13T01:35:18.370Z,0
2016-05-13T01:36:18.499Z,0
2016-05-13T01:37:18.516Z,0
2016-05-13T01:38:18.504Z,0
2016-05-13T01:39:18.521Z,0
2016-05-13T01:40:18.040Z,0
2016-05-13T01:41:18.355Z,0
2016-05-13T01:42:18.498Z,0
2016-05-13T01:43:18.517Z,0
2016-05-13T01:44:18.395Z,0
2016-05-13T01:45:18.537Z,0
2016-05-13T01:46:18.509Z,0
2016-05-13T01:47:18.528Z,0
2016-05-13T01:48:18.374Z,0
2016-05-13T01:49:18.534Z,0
2016-05-13T01:50:18.551Z,0
2016-05-13T01:51:18.382Z,0
2016-05-13T01:52:18.384Z,0
2016-05-13T01:53:18.528Z,0
2016-05-13T01:54:18.546Z,0
2016-05-13T01:55:18.533Z,0
2016-05-13T01:56:18.255Z,0
2016-05-13T01:57:18.398Z,0
2016-05-13T01:58:18.401Z,0
2016-05-13T01:59:18.388Z,0
2016-05-13T02:00:18.422Z,0
2016-05-13T02:01:18.518Z,0
2016-05-13T02:02:18.880Z,0
2016-05-13T02:03:18.430Z,0
2016-05-13T02:04:18.542Z,0
2016-05-13T02:05:18.544Z,0
2016-05-13T02:06:18.266Z,0
2016-05-13T02:07:18.549Z,0
2016-05-13T02:08:18.397Z,0
2016-05-13T02:09:18.259Z,0
2016-05-13T02:10:18.574Z,0
2016-05-13T02:11:18.436Z,0
2016-05-13T02:12:18.438Z,0
2016-05-13T02:13:18.565Z,0
2016-05-13T02:14:18.553Z,0
2016-05-13T02:15:18.572Z,0
2016-05-13T02:16:18.590Z,0
2016-05-13T02:17:18.937Z,0
2016-05-13T02:18:18.642Z,0
2016-05-13T02:19:18.410Z,0
2016-05-13T02:20:18.584Z,0
2016-05-13T02:21:18.587Z,0
2016-05-13T02:22:18.590Z,0
2016-05-13T02:23:18.593Z,0
2016-05-13T02:24:18.674Z,0
2016-05-13T02:25:18.583Z,0
2016-05-13T02:26:18.586Z,0
2016-05-13T02:27:18.588Z,0
2016-05-13T02:28:18.575Z,0
2016-05-13T02:29:18.453Z,0
2016-05-13T02:30:18.425Z,0
2016-05-13T02:31:18.302Z,0
2016-05-13T02:32:18.430Z,0
2016-05-13T02:33:18.604Z,0
2016-05-13T02:34:18.607Z,0
2016-05-13T02:35:18.609Z,0
2016-05-13T02:36:18.627Z,0
2016-05-13T02:37:18.460Z,0
2016-05-13T02:38:18.462Z,0
2016-05-13T02:39:18.590Z,0
2016-05-13T02:40:18.592Z,0
2016-05-13T02:41:18.626Z,0
2016-05-13T02:42:18.613Z,0
2016-05-13T02:43:18.615Z,0
2016-05-13T02:44:18.634Z,0
2016-05-13T02:45:18.652Z,0
2016-05-13T02:46:18.608Z,0
2016-05-13T02:47:18.454Z,0
2016-05-13T02:48:18.317Z,0
2016-05-13T02:49:18.288Z,0
2016-05-13T02:50:18.635Z,0
2016-05-13T02:51:18.622Z,0
2016-05-13T02:52:18.452Z,0
2016-05-13T02:53:18.486Z,0
2016-05-13T02:54:18.614Z,0
2016-05-13T02:55:18.616Z,0
2016-05-13T02:56:18.636Z,0
2016-05-13T02:57:18.638Z,0
2016-05-13T02:58:18.359Z,0
2016-05-13T02:59:18.486Z,0
2016-05-13T03:00:18.646Z,0
2016-05-13T03:01:18.477Z,0
2016-05-13T03:02:18.697Z,0
2016-05-13T03:03:18.638Z,0
2016-05-13T03:04:18.500Z,0
2016-05-13T03:05:18.331Z,0
2016-05-13T03:06:18.630Z,0
2016-05-13T03:07:18.477Z,0
2016-05-13T03:08:18.371Z,0
2016-05-13T03:09:18.499Z,0
2016-05-13T03:10:18.657Z,0
2016-05-13T03:11:18.644Z,0
2016-05-13T03:12:18.646Z,0
2016-05-13T03:13:18.665Z,0
2016-05-13T03:14:18.668Z,0
2016-05-13T03:15:18.514Z,0
2016-05-13T03:16:18.657Z,0
2016-05-13T03:17:18.520Z,0
2016-05-13T03:18:18.678Z,0
2016-05-13T03:19:18.665Z,0
2016-05-13T03:20:18.652Z,0
2016-05-13T03:21:18.655Z,0
2016-05-13T03:22:18.674Z,0
2016-05-13T03:23:18.536Z,0
2016-05-13T03:24:18.679Z,0
2016-05-13T03:25:18.666Z,0
2016-05-13T03:26:18.669Z,0
2016-05-13T03:27:18.687Z,0
2016-05-13T03:28:18.658Z,0
2016-05-13T03:29:18.708Z,0
2016-05-13T03:30:18.523Z,0
2016-05-13T03:31:18.682Z,0
2016-05-13T03:32:18.528Z,0
2016-05-13T03:33:18.547Z,0
2016-05-13T03:34:18.675Z,0
2016-05-13T03:35:18.725Z,0
2016-05-13T03:36:18.680Z,0
2016-05-13T03:37:18.527Z,0
2016-05-13T03:38:18.685Z,0
2016-05-13T03:39:18.688Z,0
2016-05-13T03:40:18.549Z,0
2016-05-13T03:41:18.725Z,0
2016-05-13T03:42:18.555Z,0
2016-05-13T03:43:18.683Z,0
2016-05-13T03:44:18.843Z,0
2016-05-13T03:45:18.720Z,0
2016-05-13T03:46:18.691Z,0
2016-05-13T03:47:18.566Z,0
2016-05-13T03:48:18.728Z,0
2016-05-13T03:49:18.699Z,0
2016-05-13T03:50:18.718Z,0
2016-05-13T03:51:18.702Z,0
2016-05-13T03:52:18.689Z,0
2016-05-13T03:53:18.739Z,0
2016-05-13T03:54:18.710Z,0
2016-05-13T03:55:18.713Z,0
2016-05-13T03:56:18.544Z,0
2016-05-13T03:57:18.578Z,0
2016-05-13T03:58:18.752Z,0
2016-05-13T03:59:18.708Z,0
2016-05-13T04:00:18.726Z,0
2016-05-13T04:01:18.713Z,0
2016-05-13T04:02:18.576Z,0
2016-05-13T04:03:18.719Z,0
2016-05-13T04:04:18.722Z,0
2016-05-13T04:05:18.724Z,0
2016-05-13T04:06:18.602Z,0
2016-05-13T04:07:18.713Z,0
2016-05-13T04:08:18.733Z,0
2016-05-13T04:09:18.735Z,0
2016-05-13T04:10:18.753Z,0
2016-05-13T04:11:18.740Z,0
2016-05-13T04:12:18.743Z,0
2016-05-13T04:13:18.433Z,5
2016-05-13T04:14:18.733Z,5
2016-05-13T04:15:18.282Z,5
2016-05-13T04:16:18.582Z,5
2016-05-13T04:17:18.725Z,5
2016-05-13T04:18:18.931Z,5
2016-05-13T04:19:18.606Z,5
2016-05-13T04:20:18.749Z,10
2016-05-13T04:21:18.752Z,10
2016-05-13T04:22:18.614Z,10
2016-05-13T04:23:18.773Z,10
2016-05-13T04:24:18.587Z,10
2016-05-13T04:25:18.778Z,15
2016-05-13T04:26:18.764Z,15
2016-05-13T04:27:18.596Z,15
2016-05-13T04:28:18.583Z,15
2016-05-13T04:29:18.601Z,15
2016-05-13T04:30:18.620Z,15
2016-05-13T04:31:18.763Z,15
2016-05-13T04:32:18.453Z,15
2016-05-13T04:33:18.939Z,15
2016-05-13T04:34:18.458Z,15
2016-05-13T04:35:18.305Z,20
2016-05-13T04:36:18.777Z,20
2016-05-13T04:37:18.779Z,20
2016-05-13T04:38:18.625Z,20
2016-05-13T04:39:18.769Z,20
2016-05-13T04:40:18.788Z,20
2016-05-13T04:41:18.758Z,20
2016-05-13T04:42:18.808Z,20
2016-05-13T04:43:18.779Z,20
2016-05-13T04:44:18.766Z,20
2016-05-13T04:45:18.471Z,20
2016-05-13T04:46:18.616Z,20
2016-05-13T04:47:18.478Z,20
2016-05-13T04:48:18.934Z,20
2016-05-13T04:49:18.795Z,15
2016-05-13T04:50:18.782Z,15
2016-05-13T04:51:18.972Z,15
2016-05-13T04:52:18.803Z,15
2016-05-13T04:53:18.619Z,15
2016-05-13T04:54:18.637Z,15
2016-05-13T04:55:18.780Z,15
2016-05-13T04:56:18.798Z,10
2016-05-13T04:57:18.801Z,10
2016-05-13T04:58:18.632Z,10
2016-05-13T04:59:18.807Z,10
2016-05-13T05:00:18.637Z,10
2016-05-13T05:01:18.797Z,10
2016-05-13T05:02:18.533Z,10
2016-05-13T05:03:18.630Z,10
2016-05-13T05:04:18.789Z,10
2016-05-13T05:05:18.808Z,10
2016-05-13T05:06:18.811Z,10
2016-05-13T05:07:18.813Z,10
2016-05-13T05:08:18.800Z,15
2016-05-13T05:09:18.818Z,15
2016-05-13T05:10:18.680Z,15
2016-05-13T05:11:18.823Z,15
2016-05-13T05:12:18.686Z,15
2016-05-13T05:13:18.641Z,15
2016-05-13T05:14:18.816Z,15
2016-05-13T05:15:18.819Z,15
2016-05-13T05:16:18.805Z,15
2016-05-13T05:17:18.840Z,15
2016-05-13T05:18:18.685Z,15
2016-05-13T05:19:18.829Z,15
2016-05-13T05:20:18.816Z,15
2016-05-13T05:21:18.851Z,15
2016-05-13T05:22:18.806Z,15
2016-05-13T05:23:18.824Z,10
2016-05-13T05:24:18.530Z,10
2016-05-13T05:25:18.830Z,10
2016-05-13T05:26:18.864Z,15
2016-05-13T05:27:18.820Z,15
2016-05-13T05:28:18.837Z,15
2016-05-13T05:29:18.809Z,15
2016-05-13T05:30:18.889Z,15
2016-05-13T05:31:18.845Z,15
2016-05-13T05:32:18.724Z,15
2016-05-13T05:33:18.680Z,20
2016-05-13T05:34:18.854Z,20
2016-05-13T05:35:18.700Z,20
2016-05-13T05:36:18.547Z,15
2016-05-13T05:37:18.847Z,15
2016-05-13T05:38:18.864Z,15
2016-05-13T05:39:18.711Z,15
2016-05-13T05:40:18.699Z,15
2016-05-13T05:41:18.858Z,15
2016-05-13T05:42:18.829Z,15
2016-05-13T05:43:18.878Z,20
2016-05-13T05:44:18.709Z,20
2016-05-13T05:45:18.852Z,25
2016-05-13T05:46:18.854Z,25
2016-05-13T05:47:18.904Z,25
2016-05-13T05:48:18.846Z,25
2016-05-13T05:49:18.863Z,25
2016-05-13T05:50:18.882Z,25
2016-05-13T05:51:18.853Z,25
2016-05-13T05:52:18.715Z,25
2016-05-13T05:53:18.874Z,20
2016-05-13T05:54:18.720Z,20
2016-05-13T05:55:18.754Z,20
2016-05-13T05:56:18.881Z,15
2016-05-13T05:57:18.885Z,15
2016-05-13T05:58:18.887Z,15
2016-05-13T05:59:18.734Z,15
2016-05-13T06:00:18.893Z,15
2016-05-13T06:01:18.755Z,15
2016-05-13T06:02:18.898Z,15
2016-05-13T06:03:18.885Z,15
2016-05-13T06:04:18.716Z,15
2016-05-13T06:05:18.766Z,15
2016-05-13T06:06:18.753Z,15
2016-05-13T06:07:18.911Z,15
2016-05-13T06:08:18.883Z,15
2016-05-13T06:09:18.745Z,15
2016-05-13T06:10:18.764Z,15
2016-05-13T06:11:18.891Z,15
2016-05-13T06:12:18.924Z,20
2016-05-13T06:13:18.599Z,20
2016-05-13T06:14:18.586Z,20
2016-05-13T06:15:18.730Z,20
2016-05-13T06:16:18.904Z,20
2016-05-13T06:17:19.173Z,20
2016-05-13T06:18:18.801Z,20
2016-05-13T06:19:18.585Z,20
2016-05-13T06:20:18.900Z,25
2016-05-13T06:21:18.902Z,25
2016-05-13T06:22:18.921Z,25
2016-05-13T06:23:18.924Z,30
2016-05-13T06:24:18.926Z,30
2016-05-13T06:25:18.788Z,30
2016-05-13T06:26:18.790Z,35
2016-05-13T06:27:18.934Z,35
2016-05-13T06:28:18.921Z,35
2016-05-13T06:29:18.784Z,35
2016-05-13T06:30:18.911Z,40
2016-05-13T06:31:18.929Z,40
2016-05-13T06:32:18.931Z,40
2016-05-13T06:33:18.779Z,40
2016-05-13T06:34:18.922Z,40
2016-05-13T06:35:18.611Z,45
2016-05-13T06:36:18.927Z,45
2016-05-13T06:37:18.789Z,45
2016-05-13T06:38:18.791Z,50
2016-05-13T06:39:18.623Z,55
2016-05-13T06:40:18.797Z,55
2016-05-13T06:41:18.955Z,60
2016-05-13T06:42:18.786Z,65
2016-05-13T06:43:18.947Z,70
2016-05-13T06:44:18.948Z,70
2016-05-13T06:45:18.935Z,70
2016-05-13T06:46:18.797Z,65
2016-05-13T06:47:19.207Z,70
2016-05-13T06:48:18.632Z,70
2016-05-13T06:49:18.962Z,70
2016-05-13T06:50:18.637Z,75
2016-05-13T06:51:18.967Z,80
2016-05-13T06:52:18.954Z,85
2016-05-13T06:53:18.676Z,90
2016-05-13T06:54:18.818Z,90
2016-05-13T06:55:18.962Z,90
2016-05-13T06:56:18.809Z,90
2016-05-13T06:57:18.827Z,95
2016-05-13T06:58:18.799Z,100
2016-05-13T06:59:18.676Z,110
2016-05-13T07:00:18.991Z,120
2016-05-13T07:01:18.807Z,130
2016-05-13T07:02:18.998Z,130
2016-05-13T07:03:18.843Z,125
2016-05-13T07:04:19.003Z,115
2016-05-13T07:05:18.989Z,105
2016-05-13T07:06:19.008Z,100
2016-05-13T07:07:18.854Z,100
2016-05-13T07:08:19.013Z,100
2016-05-13T07:09:18.984Z,100
2016-05-13T07:10:19.002Z,105
2016-05-13T07:11:18.990Z,115
2016-05-13T07:12:18.852Z,130
2016-05-13T07:13:18.979Z,135
2016-05-13T07:14:18.842Z,130
2016-05-13T07:15:19.047Z,115
2016-05-13T07:16:18.691Z,105
2016-05-13T07:17:18.897Z,100
2016-05-13T07:18:19.008Z,90
2016-05-13T07:19:18.698Z,80
2016-05-13T07:20:18.718Z,80
2016-05-13T07:21:21.391Z,80
2016-05-13T07:22:18.894Z,75
2016-05-13T07:23:19.038Z,75
2016-05-13T07:24:19.025Z,65
2016-05-13T07:25:19.012Z,65
2016-05-13T07:26:19.061Z,65
2016-05-13T07:27:19.065Z,65
2016-05-13T07:28:19.035Z,70
2016-05-13T07:29:18.867Z,75
2016-05-13T07:30:18.901Z,80
2016-05-13T07:31:19.028Z,90
2016-05-13T07:32:19.078Z,95
2016-05-13T07:33:19.034Z,100
2016-05-13T07:34:19.083Z,95
2016-05-13T07:35:19.054Z,105
2016-05-13T07:36:19.056Z,95
2016-05-13T07:37:19.044Z,90
2016-05-13T07:38:18.906Z,80
2016-05-13T07:39:19.081Z,70
2016-05-13T07:40:19.052Z,65
2016-05-13T07:41:19.070Z,60
2016-05-13T07:42:18.917Z,55
2016-05-13T07:43:19.092Z,55
2016-05-13T07:44:18.767Z,55
2016-05-13T07:45:19.097Z,55
2016-05-13T07:46:19.083Z,55
2016-05-13T07:47:19.399Z,60
2016-05-13T07:48:19.652Z,60
2016-05-13T07:49:19.108Z,70
2016-05-13T07:50:18.955Z,70
2016-05-13T07:51:19.113Z,75
2016-05-13T07:52:19.085Z,75
2016-05-13T07:53:18.947Z,75
2016-05-13T07:54:19.074Z,70
2016-05-13T07:55:19.108Z,70
2016-05-13T07:56:18.814Z,75
2016-05-13T07:57:18.942Z,75
2016-05-13T07:58:19.007Z,75
2016-05-13T07:59:19.088Z,70
2016-05-13T08:00:19.153Z,75
2016-05-13T08:01:18.953Z,75
2016-05-13T08:02:19.534Z,70
2016-05-13T08:03:18.817Z,65
2016-05-13T08:04:19.179Z,65
2016-05-13T08:05:19.119Z,70
2016-05-13T08:06:19.248Z,75
2016-05-13T08:07:19.109Z,80
2016-05-13T08:08:18.956Z,80
2016-05-13T08:09:19.131Z,80
2016-05-13T08:10:19.181Z,75
2016-05-13T08:11:19.167Z,70
2016-05-13T08:12:18.966Z,70
2016-05-13T08:13:19.141Z,65
2016-05-13T08:14:19.159Z,65
2016-05-13T08:15:18.975Z,70
2016-05-13T08:16:19.134Z,75
2016-05-13T08:17:19.011Z,75
2016-05-13T08:18:19.030Z,80
2016-05-13T08:19:18.845Z,85
2016-05-13T08:20:19.144Z,85
2016-05-13T08:21:19.022Z,90
2016-05-13T08:22:19.180Z,100
2016-05-13T08:23:19.184Z,100
2016-05-13T08:24:19.155Z,100
2016-05-13T08:25:19.157Z,95
2016-05-13T08:26:19.036Z,95
2016-05-13T08:27:19.085Z,95
2016-05-13T08:28:19.182Z,100
2016-05-13T08:29:19.153Z,100
2016-05-13T08:30:19.171Z,100
2016-05-13T08:31:19.159Z,100
2016-05-13T08:32:19.036Z,105
2016-05-13T08:33:19.445Z,105
2016-05-13T08:34:18.901Z,110
2016-05-13T08:35:19.184Z,110
2016-05-13T08:36:19.203Z,105
2016-05-13T08:37:19.190Z,105
2016-05-13T08:38:19.193Z,105
2016-05-13T08:39:19.227Z,105
2016-05-13T08:40:19.183Z,105
2016-05-13T08:41:19.061Z,110
2016-05-13T08:42:19.203Z,110
2016-05-13T08:43:19.206Z,105
2016-05-13T08:44:18.897Z,100
2016-05-13T08:45:19.242Z,95
2016-05-13T08:46:19.245Z,95
2016-05-13T08:47:19.061Z,90
2016-05-13T08:48:19.361Z,90
2016-05-13T08:49:19.082Z,90
2016-05-13T08:50:19.225Z,95
2016-05-13T08:51:19.227Z,100
2016-05-13T08:52:19.230Z,105
2016-05-13T08:53:18.905Z,105
2016-05-13T08:54:18.955Z,115
2016-05-13T08:55:19.254Z,115
2016-05-13T08:56:19.069Z,120
2016-05-13T08:57:19.229Z,120
2016-05-13T08:58:19.246Z,115
2016-05-13T08:59:19.249Z,110
2016-05-13T09:00:19.096Z,105
2016-05-13T09:01:19.099Z,105
2016-05-13T09:02:19.273Z,105
2016-05-13T09:03:19.588Z,100
2016-05-13T09:04:18.918Z,100
2016-05-13T09:05:19.281Z,100
2016-05-13T09:06:19.253Z,95
2016-05-13T09:07:19.255Z,95
2016-05-13T09:08:19.273Z,95
2016-05-13T09:09:19.104Z,95
2016-05-13T09:10:19.264Z,90
2016-05-13T09:11:19.281Z,95
2016-05-13T09:12:19.300Z,100
2016-05-13T09:13:18.959Z,105
2016-05-13T09:14:19.150Z,105
2016-05-13T09:15:19.339Z,110
2016-05-13T09:16:19.342Z,110
2016-05-13T09:17:19.938Z,105
2016-05-13T09:18:20.581Z,105
2016-05-13T09:19:19.147Z,110
2016-05-13T09:20:19.291Z,105
2016-05-13T09:21:19.308Z,95
2016-05-13T09:22:19.296Z,95
2016-05-13T09:23:19.174Z,90
2016-05-13T09:24:19.129Z,90
2016-05-13T09:25:18.975Z,90
2016-05-13T09:26:19.307Z,90
2016-05-13T09:27:19.310Z,90
2016-05-13T09:28:19.312Z,90
2016-05-13T09:29:19.315Z,95
2016-05-13T09:30:19.317Z,95
2016-05-13T09:31:19.351Z,90
2016-05-13T09:32:19.619Z,85
2016-05-13T09:33:19.013Z,85
2016-05-13T09:34:19.187Z,95
2016-05-13T09:35:19.174Z,100
2016-05-13T09:36:19.349Z,110
2016-05-13T09:37:19.164Z,115
2016-05-13T09:38:19.339Z,120
2016-05-13T09:39:20.606Z,120
2016-05-13T09:40:19.220Z,120
2016-05-13T09:41:19.425Z,115
2016-05-13T09:42:19.475Z,120
2016-05-13T09:43:19.586Z,115
2016-05-13T09:44:19.339Z,105
2016-05-13T09:45:19.342Z,105
2016-05-13T09:46:19.188Z,105
2016-05-13T09:47:19.347Z,95
2016-05-13T09:48:20.991Z,100
2016-05-13T09:49:19.086Z,105
2016-05-13T09:50:19.214Z,105
2016-05-13T09:51:19.358Z,105
2016-05-13T09:52:19.344Z,115
2016-05-13T09:53:19.379Z,125
2016-05-13T09:54:19.366Z,135
2016-05-13T09:55:19.212Z,135
2016-05-13T09:56:19.355Z,130
2016-05-13T09:57:19.202Z,130
2016-05-13T09:58:19.376Z,150
2016-05-13T09:59:19.380Z,155
2016-05-13T10:00:19.366Z,155
2016-05-13T10:01:19.385Z,150
2016-05-13T10:02:19.387Z,160
2016-05-13T10:03:19.593Z,145
2016-05-13T10:04:19.299Z,135
2016-05-13T10:05:19.114Z,125
2016-05-13T10:06:19.257Z,115
2016-05-13T10:07:19.401Z,115
2016-05-13T10:08:19.266Z,110
2016-05-13T10:09:19.343Z,110
2016-05-13T10:10:19.497Z,105
2016-05-13T10:11:19.559Z,110
2016-05-13T10:12:19.416Z,110
2016-05-13T10:13:19.466Z,110
2016-05-13T10:14:19.484Z,115
2016-05-13T10:15:19.502Z,115
2016-05-13T10:16:19.535Z,115
2016-05-13T10:17:19.726Z,110
2016-05-13T10:18:19.754Z,110
2016-05-13T10:19:19.606Z,105
2016-05-13T10:20:19.583Z,105
2016-05-13T10:21:19.778Z,110
2016-05-13T10:22:19.583Z,110
2016-05-13T10:23:19.731Z,115
2016-05-13T10:24:19.750Z,110
2016-05-13T10:25:19.787Z,105
2016-05-13T10:26:19.604Z,105
2016-05-13T10:27:19.640Z,100
2016-05-13T10:28:19.784Z,95
2016-05-13T10:29:19.647Z,105
2016-05-13T10:30:19.650Z,105
2016-05-13T10:31:19.653Z,95
2016-05-13T10:32:20.095Z,95
2016-05-13T10:33:20.474Z,90
2016-05-13T10:34:19.804Z,85
2016-05-13T10:35:19.510Z,90
2016-05-13T10:36:19.670Z,90
2016-05-13T10:37:19.642Z,85
2016-05-13T10:38:19.800Z,85
2016-05-13T10:39:19.819Z,85
2016-05-13T10:40:19.494Z,90
2016-05-13T10:41:19.809Z,95
2016-05-13T10:42:19.702Z,95
2016-05-13T10:43:19.830Z,95
2016-05-13T10:44:19.833Z,105
2016-05-13T10:45:19.804Z,100
2016-05-13T10:46:19.807Z,100
2016-05-13T10:47:19.934Z,105
2016-05-13T10:48:21.109Z,100
2016-05-13T10:49:19.893Z,100
2016-05-13T10:50:19.911Z,100
2016-05-13T10:51:19.664Z,100
2016-05-13T10:52:19.855Z,95
2016-05-13T10:53:19.669Z,95
2016-05-13T10:54:19.828Z,95
2016-05-13T10:55:19.846Z,100
2016-05-13T10:56:19.693Z,105
2016-05-13T10:57:19.523Z,110
2016-05-13T10:58:19.840Z,110
2016-05-13T10:59:19.701Z,110
2016-05-13T11:00:20.641Z,115
2016-05-13T11:01:19.862Z,120
2016-05-13T11:02:19.959Z,125
2016-05-13T11:03:20.134Z,130
2016-05-13T11:04:19.855Z,135
2016-05-13T11:05:19.873Z,135
2016-05-13T11:06:19.845Z,140
2016-05-13T11:07:19.878Z,150
2016-05-13T11:08:19.850Z,155
2016-05-13T11:09:19.869Z,155
2016-05-13T11:10:19.700Z,160
2016-05-13T11:11:19.874Z,165
2016-05-13T11:12:19.892Z,180
2016-05-13T11:13:19.723Z,180
2016-05-13T11:14:19.897Z,190
2016-05-13T11:15:19.728Z,200
2016-05-13T11:16:19.730Z,200
2016-05-13T11:17:19.749Z,205
2016-05-13T11:18:20.565Z,205
2016-05-13T11:19:19.911Z,210
2016-05-13T11:20:19.773Z,205
2016-05-13T11:21:19.604Z,200
2016-05-13T11:22:19.951Z,180
2016-05-13T11:23:19.922Z,175
2016-05-13T11:24:19.596Z,170
2016-05-13T11:25:19.927Z,155
2016-05-13T11:26:19.915Z,140
2016-05-13T11:27:22.323Z,150
2016-05-13T11:28:19.920Z,160
2016-05-13T11:29:19.938Z,170
2016-05-13T11:30:19.753Z,175
2016-05-13T11:31:19.943Z,170
2016-05-13T11:32:19.790Z,180
2016-05-13T11:33:20.042Z,195
2016-05-13T11:34:19.889Z,195
2016-05-13T11:35:19.626Z,195
2016-05-13T11:36:19.769Z,205
2016-05-13T11:37:19.819Z,225
2016-05-13T11:38:19.978Z,255
2016-05-13T11:39:19.793Z,260
2016-05-13T11:40:19.936Z,270
2016-05-13T11:41:19.923Z,285
2016-05-13T11:42:19.785Z,345
2016-05-13T11:43:19.960Z,340
2016-05-13T11:44:19.650Z,295
2016-05-13T11:45:19.808Z,280
2016-05-13T11:46:19.936Z,295
2016-05-13T11:47:19.971Z,330
2016-05-13T11:48:19.677Z,350
2016-05-13T11:49:19.977Z,330
2016-05-13T11:50:19.495Z,300
2016-05-13T11:51:20.013Z,315
2016-05-13T11:52:20.015Z,310
2016-05-13T11:53:19.830Z,350
2016-05-13T11:54:19.849Z,385
2016-05-13T11:55:32.305Z,415
2016-05-13T11:56:19.682Z,425
2016-05-13T11:57:19.716Z,435
2016-05-13T11:58:20.016Z,445
2016-05-13T11:59:20.018Z,440
2016-05-13T12:00:20.053Z,425
2016-05-13T12:01:20.023Z,415
2016-05-13T12:02:20.465Z,415
2016-05-13T12:03:19.717Z,395
2016-05-13T12:04:19.892Z,350
2016-05-13T12:05:20.035Z,320
2016-05-13T12:06:20.084Z,285
2016-05-13T12:07:20.087Z,245
2016-05-13T12:08:19.903Z,230
2016-05-13T12:09:19.889Z,220
2016-05-13T12:10:19.923Z,215
2016-05-13T12:11:20.098Z,210
2016-05-13T12:12:20.100Z,210
2016-05-13T12:13:20.119Z,220
2016-05-13T12:14:20.121Z,215
2016-05-13T12:15:19.921Z,205
2016-05-13T12:16:20.096Z,195
2016-05-13T12:17:19.927Z,185
2016-05-13T12:18:20.194Z,165
2016-05-13T12:19:19.947Z,155
2016-05-13T12:20:19.935Z,150
2016-05-13T12:21:20.094Z,145
2016-05-13T12:22:19.815Z,140
2016-05-13T12:23:19.990Z,140
2016-05-13T12:24:20.132Z,145
2016-05-13T12:25:19.980Z,155
2016-05-13T12:26:20.154Z,150
2016-05-13T12:27:20.141Z,155
2016-05-13T12:28:20.160Z,155
2016-05-13T12:29:20.131Z,180
2016-05-13T12:30:20.180Z,210
2016-05-13T12:31:20.168Z,240
2016-05-13T12:32:20.201Z,250
2016-05-13T12:33:20.032Z,255
2016-05-13T12:34:20.160Z,255
2016-05-13T12:35:20.022Z,260
2016-05-13T12:36:20.040Z,255
2016-05-13T12:37:19.996Z,250
2016-05-13T12:38:20.186Z,225
2016-05-13T12:39:20.190Z,210
2016-05-13T12:40:20.176Z,200
2016-05-13T12:41:19.881Z,200
2016-05-13T12:42:19.870Z,200
2016-05-13T12:43:20.059Z,210
2016-05-13T12:44:20.062Z,230
2016-05-13T12:45:20.050Z,240
2016-05-13T12:46:20.223Z,255
2016-05-13T12:47:20.820Z,265
2016-05-13T12:48:20.619Z,250
2016-05-13T12:49:20.247Z,240
2016-05-13T12:50:20.219Z,230
2016-05-13T12:51:20.283Z,215
2016-05-13T12:52:20.255Z,200
2016-05-13T12:53:20.274Z,170
2016-05-13T12:54:20.073Z,150
2016-05-13T12:55:20.247Z,140
2016-05-13T12:56:20.265Z,145
2016-05-13T12:57:20.081Z,145
2016-05-13T12:58:20.084Z,150
2016-05-13T12:59:20.290Z,145
2016-05-13T13:00:20.260Z,150
2016-05-13T13:01:20.107Z,170
2016-05-13T13:02:20.141Z,180
2016-05-13T13:03:20.113Z,180
2016-05-13T13:04:20.115Z,175
2016-05-13T13:05:20.134Z,180
2016-05-13T13:06:20.324Z,185
2016-05-13T13:07:20.124Z,185
2016-05-13T13:08:20.267Z,185
2016-05-13T13:09:20.270Z,190
2016-05-13T13:10:20.304Z,200
2016-05-13T13:11:20.134Z,215
2016-05-13T13:12:20.293Z,225
2016-05-13T13:13:20.327Z,230
2016-05-13T13:14:20.298Z,240
2016-05-13T13:15:20.317Z,250
2016-05-13T13:16:20.008Z,260
2016-05-13T13:17:20.322Z,255
2016-05-13T13:18:20.403Z,260
2016-05-13T13:19:20.327Z,265
2016-05-13T13:20:20.377Z,270
2016-05-13T13:21:20.350Z,275
2016-05-13T13:22:20.211Z,275
2016-05-13T13:23:20.197Z,285
2016-05-13T13:24:20.357Z,290
2016-05-13T13:25:20.374Z,300
2016-05-13T13:26:20.378Z,305
2016-05-13T13:27:20.350Z,300
2016-05-13T13:28:20.368Z,295
2016-05-13T13:29:20.370Z,285
2016-05-13T13:30:20.405Z,280
2016-05-13T13:31:20.376Z,275
2016-05-13T13:32:20.409Z,275
2016-05-13T13:33:20.100Z,275
2016-05-13T13:34:20.227Z,275
2016-05-13T13:35:20.387Z,290
2016-05-13T13:36:20.404Z,310
2016-05-13T13:37:20.407Z,330
2016-05-13T13:38:20.238Z,355
2016-05-13T13:39:20.413Z,355
2016-05-13T13:40:20.259Z,355
2016-05-13T13:41:20.450Z,355
2016-05-13T13:42:20.281Z,350
2016-05-13T13:43:20.423Z,335
2016-05-13T13:44:20.286Z,330
2016-05-13T13:45:20.445Z,335
2016-05-13T13:46:20.448Z,320
2016-05-13T13:47:20.309Z,320
2016-05-13T13:48:20.718Z,320
2016-05-13T13:49:20.455Z,315
2016-05-13T13:50:20.303Z,310
2016-05-13T13:51:20.367Z,310
2016-05-13T13:52:20.369Z,300
2016-05-13T13:53:20.357Z,280
2016-05-13T13:54:20.328Z,285
2016-05-13T13:55:20.519Z,280
2016-05-13T13:56:20.349Z,285
2016-05-13T13:57:20.524Z,285
2016-05-13T13:58:20.183Z,285
2016-05-13T13:59:20.249Z,285
2016-05-13T14:00:20.376Z,275
2016-05-13T14:01:20.519Z,270
2016-05-13T14:02:20.960Z,260
2016-05-13T14:03:20.540Z,260
2016-05-13T14:04:20.526Z,265
2016-05-13T14:05:20.420Z,270
2016-05-13T14:06:20.782Z,275
2016-05-13T14:07:20.566Z,280
2016-05-13T14:08:20.554Z,285
2016-05-13T14:09:20.556Z,280
2016-05-13T14:10:20.418Z,280
2016-05-13T14:11:20.577Z,275
2016-05-13T14:12:20.626Z,275
2016-05-13T14:13:20.926Z,275